Dina — CNA3890 — position and weather

sailwx.info

Track history (hours):
 
Tides and Currents Weather Stations Pressure Air Temp Water Temp Dewpoint Dewpoint Depression Visibility Wind Speed Wind Dir Waves Ship Positions

Dina

Last reported at 2017-Dec-12 03:18 UTC. Time now 2018-Feb-25 14:10 UTC.
Position N 35°50' W 005°51'.
Warning: this ship's position is months out of date.

Length 36 m; draft 3.6 m.

Type: Fishing. MMSI: 242920000.

Date/timePositionNaut miles runAvg speedWind from/ knotsBaromVisibWave heightAir tempDewpointWater temp
2017-Dec-12 03:18N 35°50' W 005°51'0 0.3
2017-Dec-12 02:45N 35°50' W 005°51'1 2.7
2017-Dec-12 02:29N 35°50' W 005°50'1 2.2
2017-Dec-12 01:52N 35°49' W 005°48'0 1.2
2017-Dec-12 01:29N 35°49' W 005°49'3 5.4
2017-Dec-12 01:00N 35°50' W 005°52'1 1.6
2017-Dec-12 00:18N 35°50' W 005°50'1 1.8
2017-Dec-11 23:59N 35°50' W 005°50'1 1.6
2017-Dec-11 23:30N 35°50' W 005°49'0 0.5
2017-Dec-11 22:58N 35°49' W 005°49'2 3.4
2017-Dec-11 22:29N 35°50' W 005°51'1 1.3
2017-Dec-11 22:01N 35°50' W 005°52'1 1.9
2017-Dec-11 21:30N 35°50' W 005°51'1 2.7
2017-Dec-11 21:00N 35°49' W 005°49'0 0.1
2017-Dec-11 20:30N 35°49' W 005°49'0 1.0
2017-Dec-11 20:00N 35°49' W 005°50'1 2.6
2017-Dec-11 19:26N 35°50' W 005°51'1 1.4
2017-Dec-11 19:00N 35°50' W 005°51'2 3.4
2017-Dec-11 18:30N 35°49' W 005°49'1 1.1
2017-Dec-11 18:00N 35°49' W 005°50'2 3.5
2017-Dec-11 17:30N 35°48' W 005°48'  
Track history (hours):
 
Tides and Currents Weather Stations Pressure Air Temp Water Temp Dewpoint Dewpoint Depression Visibility Wind Speed Wind Dir Waves Ship Positions

Dina

Last reported at 2017-Dec-12 03:18 UTC. Time now 2018-Feb-25 14:10 UTC.
Position N 35°50' W 005°51'.
Warning: this ship's position is months out of date.

Length 36 m; draft 3.6 m.

Type: Fishing. MMSI: 242920000.

Date/timePositionNaut miles runAvg speedWind from/ knotsBaromVisibWave heightAir tempDewpointWater temp
2017-Dec-12 03:18N 35°50' W 005°51'0 0.3
2017-Dec-12 02:45N 35°50' W 005°51'1 2.7
2017-Dec-12 02:29N 35°50' W 005°50'1 2.2
2017-Dec-12 01:52N 35°49' W 005°48'0 1.2
2017-Dec-12 01:29N 35°49' W 005°49'3 5.4
2017-Dec-12 01:00N 35°50' W 005°52'1 1.6
2017-Dec-12 00:18N 35°50' W 005°50'1 1.8
2017-Dec-11 23:59N 35°50' W 005°50'1 1.6
2017-Dec-11 23:30N 35°50' W 005°49'0 0.5
2017-Dec-11 22:58N 35°49' W 005°49'2 3.4
2017-Dec-11 22:29N 35°50' W 005°51'1 1.3
2017-Dec-11 22:01N 35°50' W 005°52'1 1.9
2017-Dec-11 21:30N 35°50' W 005°51'1 2.7
2017-Dec-11 21:00N 35°49' W 005°49'0 0.1
2017-Dec-11 20:30N 35°49' W 005°49'0 1.0
2017-Dec-11 20:00N 35°49' W 005°50'1 2.6
2017-Dec-11 19:26N 35°50' W 005°51'1 1.4
2017-Dec-11 19:00N 35°50' W 005°51'2 3.4
2017-Dec-11 18:30N 35°49' W 005°49'1 1.1
2017-Dec-11 18:00N 35°49' W 005°50'2 3.5
2017-Dec-11 17:30N 35°48' W 005°48'  

Dump ship's entire track history